Time;durP1;ratioP1;P1;durP2;ratioP2;P2;SDS_P1;SDS_P2;PMS_P1;PMS_P2;Temp;Humidity;BMP_temperature;BMP_pressure;BME280_temperature;BME280_humidity;BME280_pressure;Samples;Min_cycle;Max_cycle;Signal;HPM_P1;HPM_P2
2022/02/06 00:00:16;;;;;;;7.55;5.47;;;;;;;1.41;100.00;96904.50;4981226;28;20061;-57
2022/02/06 00:02:48;;;;;;;6.15;5.43;;;;;;;1.35;100.00;96897.03;4984999;28;20065;-54
2022/02/06 00:05:18;;;;;;;6.20;5.60;;;;;;;1.34;100.00;96888.41;4985411;28;20082;-54
2022/02/06 00:07:49;;;;;;;5.57;4.97;;;;;;;1.29;100.00;96886.94;4984537;28;20069;-51
2022/02/06 00:10:18;;;;;;;6.38;5.80;;;;;;;1.37;100.00;96885.63;4990646;28;20066;-56
2022/02/06 00:12:46;;;;;;;6.15;5.55;;;;;;;1.42;100.00;96877.63;4987800;28;20066;-56
2022/02/06 00:15:16;;;;;;;5.20;4.72;;;;;;;1.31;100.00;96883.34;4988056;28;20076;-51
2022/02/06 00:17:45;;;;;;;6.25;5.30;;;;;;;1.30;100.00;96886.84;4985847;28;20081;-53
2022/02/06 00:20:14;;;;;;;7.25;5.35;;;;;;;1.27;100.00;96884.41;4986952;28;20089;-49
2022/02/06 00:22:48;;;;;;;6.90;5.40;;;;;;;1.22;100.00;96873.41;4983644;28;20093;-50
2022/02/06 00:25:32;;;;;;;7.18;5.55;;;;;;;1.20;100.00;96867.44;4981850;28;20066;-53
2022/02/06 00:28:14;;;;;;;7.68;5.53;;;;;;;1.28;100.00;96873.13;4984536;28;20076;-48
2022/02/06 00:30:49;;;;;;;7.97;5.22;;;;;;;1.22;100.00;96865.63;4984882;28;20082;-53
2022/02/06 00:33:25;;;;;;;5.03;4.60;;;;;;;1.20;100.00;96862.25;4983410;28;20074;-50
2022/02/06 00:36:04;;;;;;;8.15;5.35;;;;;;;1.31;100.00;96862.56;4984294;28;20464;-52
2022/02/06 00:39:01;;;;;;;8.95;6.03;;;;;;;1.34;100.00;96854.63;4985120;28;20085;-51
2022/02/06 00:41:25;;;;;;;5.45;4.78;;;;;;;1.37;100.00;96853.59;4985238;28;21548;-50
2022/02/06 00:43:54;;;;;;;7.13;5.38;;;;;;;1.35;100.00;96847.66;4984597;28;20070;-52
2022/02/06 00:46:23;;;;;;;6.25;5.25;;;;;;;1.33;100.00;96849.50;4984529;28;20061;-54
2022/02/06 00:48:55;;;;;;;6.30;4.80;;;;;;;1.39;100.00;96852.63;4983500;28;20097;-50
2022/02/06 00:51:31;;;;;;;5.93;5.20;;;;;;;1.41;100.00;96850.78;4985005;28;20069;-53
2022/02/06 00:54:01;;;;;;;6.00;4.65;;;;;;;1.49;100.00;96850.38;4983828;28;20069;-52
2022/02/06 00:56:30;;;;;;;6.97;5.70;;;;;;;1.41;100.00;96844.72;4981961;28;20078;-55
2022/02/06 00:58:59;;;;;;;6.05;5.03;;;;;;;1.41;100.00;96843.00;4983047;28;20082;-49
2022/02/06 01:01:27;;;;;;;5.78;4.82;;;;;;;1.46;100.00;96844.50;4985249;28;20488;-50
2022/02/06 01:03:55;;;;;;;7.32;5.07;;;;;;;1.42;100.00;96838.63;4981437;28;20072;-48
2022/02/06 01:06:24;;;;;;;6.90;4.85;;;;;;;1.48;100.00;96835.72;4974054;28;20077;-51
2022/02/06 01:08:52;;;;;;;5.70;4.72;;;;;;;1.42;100.00;96838.63;4970689;28;20085;-50
2022/02/06 01:11:22;;;;;;;7.53;4.80;;;;;;;1.44;100.00;96839.38;4989328;28;20086;-50
2022/02/06 01:14:00;;;;;;;5.53;5.03;;;;;;;1.41;100.00;96840.41;4985611;28;20549;-52
2022/02/06 01:16:32;;;;;;;4.88;4.40;;;;;;;1.44;100.00;96841.97;4993472;28;20076;-51
2022/02/06 01:19:04;;;;;;;5.05;4.65;;;;;;;1.50;100.00;96836.47;4993241;28;20069;-49
2022/02/06 01:21:44;;;;;;;5.97;4.60;;;;;;;1.51;100.00;96847.69;4987599;28;20073;-55
2022/02/06 01:24:17;;;;;;;5.47;4.47;;;;;;;1.53;100.00;96845.88;4992140;28;20076;-48
2022/02/06 01:26:51;;;;;;;7.93;4.65;;;;;;;1.56;100.00;96843.94;4994487;28;21253;-54
2022/02/06 01:29:31;;;;;;;5.18;4.30;;;;;;;1.60;100.00;96839.44;4990529;28;20078;-53
2022/02/06 01:32:03;;;;;;;6.30;4.50;;;;;;;1.51;100.00;96837.31;4985957;28;20077;-50
2022/02/06 01:34:40;;;;;;;5.32;4.82;;;;;;;1.49;100.00;96832.19;4987347;28;20078;-54
2022/02/06 01:37:17;;;;;;;8.68;4.72;;;;;;;1.55;100.00;96831.88;4983464;28;20069;-49
2022/02/06 01:40:06;;;;;;;5.43;4.65;;;;;;;1.65;100.00;96825.28;4984530;28;20461;-53
2022/02/06 01:42:41;;;;;;;8.35;4.60;;;;;;;1.55;100.00;96821.50;4986387;28;20062;-51
2022/02/06 01:45:29;;;;;;;6.43;4.45;;;;;;;1.49;100.00;96821.81;4987592;28;20553;-51
2022/02/06 02:04:44;;;;;;;6.43;4.65;;;;;;;1.54;100.00;96814.59;4983931;28;20076;-53
2022/02/06 02:10:16;;;;;;;5.70;4.80;;;;;;;1.52;100.00;96806.06;4981899;28;20146;-55
2022/02/06 02:18:38;;;;;;;5.90;4.60;;;;;;;1.44;100.00;96797.81;4987811;28;20074;-47
2022/02/06 02:27:00;;;;;;;7.88;4.80;;;;;;;1.38;100.00;96793.78;4974738;28;20088;-49
2022/02/06 02:44:04;;;;;;;4.88;4.47;;;;;;;1.37;100.00;96770.47;4986437;28;20070;-52
2022/02/06 02:46:29;;;;;;;5.55;4.43;;;;;;;1.47;100.00;96760.44;4986594;28;20054;-51
2022/02/06 02:49:00;;;;;;;8.68;4.50;;;;;;;1.52;100.00;96764.47;4985114;28;20074;-53
2022/02/06 02:51:33;;;;;;;5.78;4.60;;;;;;;1.47;100.00;96763.88;4986251;28;20066;-49
2022/02/06 02:54:09;;;;;;;5.93;4.47;;;;;;;1.42;100.00;96756.31;5017995;28;20073;-54
2022/02/06 02:56:43;;;;;;;5.10;4.60;;;;;;;1.38;100.00;96757.41;4986306;28;20105;-52
2022/02/06 02:59:19;;;;;;;4.97;4.38;;;;;;;1.45;100.00;96762.28;4998623;28;20617;-52
2022/02/06 03:01:53;;;;;;;9.30;4.60;;;;;;;1.38;100.00;96756.56;4985031;28;20084;-49
2022/02/06 03:04:22;;;;;;;4.93;4.53;;;;;;;1.30;100.00;96753.53;4982663;28;20062;-53
2022/02/06 03:06:50;;;;;;;5.03;4.53;;;;;;;1.34;100.00;96750.69;4985119;28;20069;-53
2022/02/06 03:09:22;;;;;;;6.68;4.53;;;;;;;1.29;100.00;96746.66;4986753;28;20066;-51
2022/02/06 03:11:50;;;;;;;6.47;4.90;;;;;;;1.43;100.00;96742.41;4991152;28;20078;-48
2022/02/06 03:14:24;;;;;;;5.95;4.75;;;;;;;1.37;100.00;96737.53;4992379;28;20094;-54
2022/02/06 03:17:03;;;;;;;6.53;4.65;;;;;;;1.40;100.00;96737.38;4973286;28;20140;-52
2022/02/06 03:19:39;;;;;;;6.65;4.30;;;;;;;1.42;100.00;96729.50;4968616;28;20596;-51
2022/02/06 03:22:08;;;;;;;6.32;5.28;;;;;;;1.47;100.00;96730.09;4982741;28;20062;-55
2022/02/06 03:24:42;;;;;;;6.15;4.20;;;;;;;1.50;100.00;96727.31;4988117;28;20109;-50
2022/02/06 03:27:11;;;;;;;6.10;4.63;;;;;;;1.58;100.00;96724.31;4989054;28;20069;-50
2022/02/06 03:29:41;;;;;;;10.07;4.82;;;;;;;1.65;100.00;96723.03;4985067;28;20070;-54
2022/02/06 03:32:10;;;;;;;;;;;;;;;1.64;100.00;96722.22;4988949;28;20446;-52
2022/02/06 03:34:38;;;;;;;7.13;4.25;;;;;;;1.63;100.00;96711.91;4984908;28;19969;-53
2022/02/06 03:37:06;;;;;;;5.95;4.35;;;;;;;1.72;100.00;96719.22;4985119;28;20058;-51
2022/02/06 03:39:38;;;;;;;5.65;4.50;;;;;;;1.71;100.00;96716.69;4990037;28;20050;-50
2022/02/06 03:42:10;;;;;;;7.45;4.88;;;;;;;1.69;100.00;96710.72;4985494;28;20464;-51
2022/02/06 03:44:44;;;;;;;7.25;4.45;;;;;;;1.74;100.00;96709.56;4988635;28;20101;-51
2022/02/06 03:47:17;;;;;;;8.00;4.40;;;;;;;1.78;100.00;96707.63;4988171;28;20116;-47
2022/02/06 03:49:54;;;;;;;6.60;4.68;;;;;;;1.81;100.00;96697.06;4984277;28;20085;-56
2022/02/06 03:52:29;;;;;;;6.60;4.47;;;;;;;1.82;100.00;96699.56;5015806;28;20646;-48
2022/02/06 03:54:59;;;;;;;8.10;4.35;;;;;;;1.85;100.00;96696.78;4984453;28;20080;-48
2022/02/06 03:57:27;;;;;;;4.70;4.30;;;;;;;1.82;100.00;96688.31;4982217;28;20677;-50
2022/02/06 03:59:56;;;;;;;10.40;4.70;;;;;;;1.81;100.00;96686.66;4983673;28;20086;-53
2022/02/06 04:02:24;;;;;;;8.40;4.78;;;;;;;1.85;100.00;96682.97;4987052;28;20077;-54
2022/02/06 04:04:54;;;;;;;6.68;4.75;;;;;;;1.84;100.00;96671.72;4987833;28;20074;-56
2022/02/06 04:07:22;;;;;;;6.20;4.10;;;;;;;1.82;100.00;96667.53;4987660;28;20058;-53
2022/02/06 04:09:54;;;;;;;4.97;4.47;;;;;;;1.95;100.00;96654.69;4985479;28;20476;-50
2022/02/06 04:12:25;;;;;;;4.85;4.13;;;;;;;1.98;100.00;96655.34;4987083;28;20066;-53
2022/02/06 04:14:56;;;;;;;8.48;4.35;;;;;;;2.04;100.00;96664.56;4984634;28;20496;-51
2022/02/06 04:17:27;;;;;;;8.05;4.50;;;;;;;2.19;100.00;96650.66;4986394;28;20078;-54
2022/02/06 04:19:56;;;;;;;5.80;4.10;;;;;;;2.13;100.00;96640.63;4968285;28;20070;-53
2022/02/06 04:22:24;;;;;;;6.50;4.13;;;;;;;2.21;100.00;96637.59;4980391;28;20077;-52
2022/02/06 04:24:52;;;;;;;6.85;4.38;;;;;;;2.28;100.00;96637.13;4985434;28;20631;-50
2022/02/06 04:27:21;;;;;;;4.40;4.00;;;;;;;2.35;100.00;96635.84;4985422;28;20468;-52
2022/02/06 04:29:53;;;;;;;4.50;4.10;;;;;;;2.35;100.00;96620.25;4982090;28;20089;-51
2022/02/06 04:32:21;;;;;;;8.98;3.90;;;;;;;2.41;100.00;96618.19;4989767;28;20074;-49
2022/02/06 04:34:51;;;;;;;5.47;3.97;;;;;;;2.53;100.00;96613.09;4972626;28;20074;-56
2022/02/06 04:37:27;;;;;;;4.90;4.00;;;;;;;2.53;100.00;96600.09;4978246;28;20080;-53
2022/02/06 04:40:15;;;;;;;4.10;3.75;;;;;;;2.58;100.00;96602.41;4983868;28;20073;-50
2022/02/06 04:46:16;;;;;;;8.80;4.03;;;;;;;2.70;100.00;96591.25;4980688;28;20069;-54
2022/02/06 05:11:42;;;;;;;5.32;3.95;;;;;;;2.92;100.00;96569.94;4971795;28;20125;-50
2022/02/06 05:14:40;;;;;;;3.58;3.25;;;;;;;2.90;100.00;96564.00;4981095;28;20419;-53
2022/02/06 05:20:36;;;;;;;5.88;3.80;;;;;;;3.06;100.00;96558.66;4984487;28;20096;-55
2022/02/06 05:26:23;;;;;;;5.25;4.28;;;;;;;3.01;100.00;96568.53;5013520;28;20505;-48
2022/02/06 05:28:56;;;;;;;5.43;3.58;;;;;;;3.06;100.00;96569.94;4983222;28;20066;-53
2022/02/06 05:31:35;;;;;;;7.07;3.97;;;;;;;3.05;100.00;96567.41;4985628;28;20074;-55
2022/02/06 05:34:04;;;;;;;4.53;3.53;;;;;;;3.12;100.00;96566.09;4983492;28;20070;-50
2022/02/06 05:36:34;;;;;;;4.05;3.58;;;;;;;3.02;100.00;96555.41;4986381;28;20077;-53
2022/02/06 05:39:03;;;;;;;5.47;3.90;;;;;;;3.11;100.00;96564.44;4983707;28;20078;-53
2022/02/06 05:41:32;;;;;;;5.05;3.90;;;;;;;3.11;100.00;96561.00;4985979;28;20078;-55
2022/02/06 05:44:02;;;;;;;5.03;4.00;;;;;;;3.14;100.00;96563.41;4983249;28;20508;-53
2022/02/06 05:46:31;;;;;;;4.35;3.95;;;;;;;3.17;100.00;96561.44;4985037;28;20330;-50
2022/02/06 05:48:59;;;;;;;5.25;3.78;;;;;;;3.15;100.00;96546.84;4981457;28;20544;-54
2022/02/06 05:51:28;;;;;;;3.88;3.47;;;;;;;3.15;100.00;96546.84;4983381;28;20074;-49
2022/02/06 05:53:57;;;;;;;5.28;3.90;;;;;;;3.08;100.00;96552.44;4985117;28;20082;-52
2022/02/06 05:56:26;;;;;;;5.13;3.90;;;;;;;3.16;100.00;96558.94;4983276;28;20337;-54
2022/02/06 05:58:54;;;;;;;4.63;3.60;;;;;;;3.09;100.00;96561.06;4993204;28;20524;-50
2022/02/06 06:01:24;;;;;;;4.38;3.97;;;;;;;3.23;100.00;96553.22;4986188;28;20062;-55
2022/02/06 06:03:53;;;;;;;3.85;3.40;;;;;;;3.22;100.00;96553.34;4986072;28;20074;-53
2022/02/06 06:06:21;;;;;;;7.18;3.47;;;;;;;3.24;100.00;96556.69;4981779;28;20065;-54
2022/02/06 06:08:50;;;;;;;4.47;3.83;;;;;;;3.31;100.00;96556.19;4986465;28;20101;-48
2022/02/06 06:11:20;;;;;;;3.75;3.45;;;;;;;3.20;100.00;96556.06;4985717;28;20078;-56
2022/02/06 06:13:48;;;;;;;7.07;3.45;;;;;;;3.28;100.00;96566.81;4985214;28;20085;-53
2022/02/06 06:16:17;;;;;;;3.75;3.45;;;;;;;3.31;100.00;96557.97;4989635;28;20077;-57
2022/02/06 06:18:46;;;;;;;5.10;3.83;;;;;;;3.32;100.00;96564.84;4987400;28;20074;-54
2022/02/06 06:21:17;;;;;;;4.23;3.80;;;;;;;3.29;100.00;96562.44;4987116;28;20307;-53
2022/02/06 06:23:45;;;;;;;4.72;3.40;;;;;;;3.38;100.00;96568.84;4985578;28;20085;-55
2022/02/06 06:26:17;;;;;;;3.97;3.67;;;;;;;3.26;100.00;96545.22;4988377;28;20475;-54
2022/02/06 06:28:46;;;;;;;6.82;3.50;;;;;;;3.32;100.00;96554.41;4986323;28;20070;-54
2022/02/06 06:31:15;;;;;;;4.70;3.38;;;;;;;3.35;100.00;96559.44;4984955;28;20070;-54
2022/02/06 06:33:43;;;;;;;5.45;3.58;;;;;;;3.43;100.00;96564.16;4986076;28;20070;-48
2022/02/06 06:36:12;;;;;;;4.18;3.20;;;;;;;3.44;100.00;96569.28;4986766;28;20532;-55
2022/02/06 06:38:40;;;;;;;3.55;3.30;;;;;;;3.41;100.00;96537.38;4986551;28;20078;-54
2022/02/06 06:41:09;;;;;;;3.85;3.50;;;;;;;3.51;100.00;96548.84;4990197;28;20073;-53
2022/02/06 06:43:37;;;;;;;4.70;3.53;;;;;;;3.52;100.00;96533.13;4988635;28;20074;-54
2022/02/06 06:46:07;;;;;;;3.60;3.30;;;;;;;3.53;100.00;96532.19;4977044;28;20066;-55
2022/02/06 06:48:37;;;;;;;4.15;3.50;;;;;;;3.55;100.00;96525.09;4968482;28;20067;-54
2022/02/06 06:51:06;;;;;;;7.30;3.72;;;;;;;3.66;100.00;96545.25;4968527;28;20080;-52
2022/02/06 06:53:37;;;;;;;4.85;3.75;;;;;;;3.52;100.00;96548.78;4970117;28;20074;-52
2022/02/06 06:56:12;;;;;;;3.20;3.00;;;;;;;3.49;100.00;96548.97;4988746;28;21810;-56
2022/02/06 06:58:43;;;;;;;3.80;3.30;;;;;;;3.62;100.00;96535.16;4986255;28;20086;-60
2022/02/06 07:01:42;;;;;;;6.25;3.63;;;;;;;3.65;100.00;96511.44;4980395;28;20077;-55
2022/02/06 07:04:09;;;;;;;3.30;3.00;;;;;;;3.67;100.00;96535.66;4998186;28;20077;-58
2022/02/06 07:06:56;;;;;;;6.90;3.38;;;;;;;3.65;100.00;96532.31;4985850;28;20077;-54
2022/02/06 07:09:24;;;;;;;4.65;3.40;;;;;;;3.75;100.00;96526.41;4985867;28;20078;-54
2022/02/06 07:11:53;;;;;;;3.30;3.10;;;;;;;3.79;100.00;96521.84;4985764;28;20078;-55
2022/02/06 07:14:21;;;;;;;3.65;3.25;;;;;;;3.85;100.00;96529.22;4988713;28;20089;-52
2022/02/06 07:16:51;;;;;;;7.03;3.63;;;;;;;3.78;100.00;96523.59;4983708;28;20595;-52
2022/02/06 07:19:19;;;;;;;3.63;3.33;;;;;;;3.77;100.00;96528.91;5016880;28;20070;-56
2022/02/06 07:21:48;;;;;;;5.53;3.28;;;;;;;3.84;100.00;96518.91;4985658;28;20068;-53
2022/02/06 07:24:18;;;;;;;3.95;3.47;;;;;;;3.87;100.00;96506.50;4987337;28;20501;-50
2022/02/06 07:26:50;;;;;;;5.20;3.33;;;;;;;3.98;100.00;96503.16;4983667;28;20062;-56
2022/02/06 07:29:18;;;;;;;4.75;2.92;;;;;;;4.02;100.00;96487.19;4988683;28;20079;-50
2022/02/06 07:31:47;;;;;;;4.13;3.10;;;;;;;3.93;100.00;96493.06;4985436;28;20070;-50
2022/02/06 07:34:17;;;;;;;4.40;3.22;;;;;;;3.94;100.00;96491.28;4985431;28;20077;-53
2022/02/06 07:36:45;;;;;;;3.20;3.00;;;;;;;3.92;100.00;96480.09;4984763;28;20077;-55
2022/02/06 07:39:14;;;;;;;4.88;3.00;;;;;;;3.95;100.00;96485.94;4984777;28;20076;-51
2022/02/06 07:41:42;;;;;;;3.55;3.25;;;;;;;4.03;100.00;96496.72;4986143;28;20081;-50
2022/02/06 07:44:11;;;;;;;4.10;3.20;;;;;;;4.07;100.00;96481.69;4986845;28;20475;-53
2022/02/06 07:46:44;;;;;;;3.30;3.10;;;;;;;4.08;100.00;96485.97;4979714;28;20069;-51
2022/02/06 07:49:14;;;;;;;3.30;3.03;;;;;;;4.05;100.00;96496.59;4985044;28;20135;-53
2022/02/06 07:51:44;;;;;;;4.68;3.40;;;;;;;4.11;100.00;96495.34;4986093;28;20084;-53
2022/02/06 07:54:12;;;;;;;3.45;3.15;;;;;;;4.08;100.00;96485.97;4985088;28;20077;-56
2022/02/06 07:56:41;;;;;;;3.30;3.00;;;;;;;4.01;100.00;96489.91;4984499;28;20082;-50
2022/02/06 07:59:09;;;;;;;5.45;3.47;;;;;;;4.04;100.00;96489.72;4988271;28;20074;-50
2022/02/06 08:01:37;;;;;;;4.20;3.30;;;;;;;4.03;100.00;96496.72;4985675;28;20114;-52
2022/02/06 08:04:07;;;;;;;4.72;3.30;;;;;;;4.07;100.00;96501.72;4983951;28;20112;-54
2022/02/06 08:06:35;;;;;;;3.28;3.00;;;;;;;4.11;100.00;96505.78;4985380;28;20061;-53
2022/02/06 08:09:05;;;;;;;3.10;2.90;;;;;;;4.16;100.00;96482.81;4987826;28;20066;-51
2022/02/06 08:11:44;;;;;;;3.95;3.20;;;;;;;4.16;100.00;96478.44;4983963;28;20078;-55
2022/02/06 08:14:48;;;;;;;4.10;3.10;;;;;;;4.29;100.00;96492.31;4987168;28;20097;-55
2022/02/06 08:17:02;;;;;;;2.92;2.72;;;;;;;4.55;100.00;96487.09;4965394;28;20753;-54
2022/02/06 08:19:31;;;;;;;5.45;3.10;;;;;;;4.64;100.00;96467.31;4962950;28;20066;-51
2022/02/06 08:21:59;;;;;;;3.42;3.13;;;;;;;4.60;100.00;96469.31;4962863;28;20070;-55
2022/02/06 08:24:29;;;;;;;3.03;2.83;;;;;;;4.55;100.00;96475.81;4971984;28;20061;-51
2022/02/06 08:26:57;;;;;;;3.05;2.78;;;;;;;4.67;100.00;96440.97;4984377;28;20088;-50
2022/02/06 08:29:26;;;;;;;3.30;3.00;;;;;;;4.60;100.00;96461.47;4987399;28;20086;-54
2022/02/06 08:31:54;;;;;;;3.05;2.85;;;;;;;4.81;100.00;96461.72;4984241;28;20622;-52
2022/02/06 08:34:23;;;;;;;4.63;3.08;;;;;;;4.73;100.00;96427.50;4980476;28;20078;-56
2022/02/06 08:36:51;;;;;;;3.00;2.80;;;;;;;4.77;100.00;96421.09;4983917;28;20073;-54
2022/02/06 08:39:19;;;;;;;5.00;2.80;;;;;;;5.08;100.00;96440.63;4984515;28;20079;-55
2022/02/06 08:41:50;;;;;;;2.97;2.73;;;;;;;4.99;100.00;96439.53;4984938;28;20417;-55
2022/02/06 08:44:20;;;;;;;2.90;2.65;;;;;;;5.04;100.00;96425.28;4986997;28;20078;-58
2022/02/06 08:46:49;;;;;;;3.42;2.70;;;;;;;5.19;100.00;96418.94;4984720;28;20062;-53
2022/02/06 08:49:18;;;;;;;3.45;2.65;;;;;;;5.13;100.00;96407.16;4983805;28;20066;-57
2022/02/06 08:51:47;;;;;;;3.28;2.60;;;;;;;5.35;100.00;96384.66;4984524;28;20062;-54
2022/02/06 08:54:15;;;;;;;3.60;2.65;;;;;;;5.35;100.00;96380.25;4979144;28;20085;-50
2022/02/06 08:57:13;;;;;;;4.55;2.70;;;;;;;5.53;100.00;96385.88;4968380;28;20054;-53
2022/02/06 08:59:42;;;;;;;3.70;2.60;;;;;;;5.51;100.00;96385.19;4985104;28;20104;-51
2022/02/06 09:02:10;;;;;;;3.25;2.40;;;;;;;5.38;100.00;96359.09;4987108;28;20722;-57
2022/02/06 09:04:38;;;;;;;2.90;2.60;;;;;;;5.38;100.00;96366.13;4984454;28;20472;-55
2022/02/06 09:07:08;;;;;;;3.90;2.50;;;;;;;5.35;100.00;96369.78;4983906;28;20583;-50
2022/02/06 09:09:39;;;;;;;3.25;2.60;;;;;;;5.44;100.00;96363.88;4983806;28;20073;-59
2022/02/06 09:12:10;;;;;;;2.85;2.63;;;;;;;5.54;100.00;96358.78;4985093;28;20066;-52
2022/02/06 09:14:39;;;;;;;3.70;2.80;;;;;;;5.26;100.00;96348.72;4984549;28;20086;-56
2022/02/06 09:17:09;;;;;;;3.00;2.70;;;;;;;5.26;100.00;96357.41;4986556;28;20082;-56
2022/02/06 09:19:39;;;;;;;2.90;2.70;;;;;;;5.32;100.00;96350.88;4984984;28;20123;-54
2022/02/06 09:22:09;;;;;;;3.28;2.90;;;;;;;5.44;100.00;96339.53;4984211;28;20583;-50
2022/02/06 09:24:38;;;;;;;3.08;2.78;;;;;;;5.39;100.00;96336.41;4983842;28;20078;-53
2022/02/06 09:27:07;;;;;;;5.60;2.80;;;;;;;5.48;100.00;96360.09;4983964;28;20081;-55
2022/02/06 09:29:40;;;;;;;3.05;2.85;;;;;;;5.54;100.00;96344.84;4985157;28;20081;-57
2022/02/06 09:37:23;;;;;;;5.32;3.00;;;;;;;5.64;100.00;96335.38;4988265;28;20473;-51
2022/02/06 09:39:52;;;;;;;3.55;2.67;;;;;;;5.63;100.00;96346.78;4984217;28;20099;-49
2022/02/06 09:42:21;;;;;;;3.42;3.13;;;;;;;5.53;100.00;96337.97;4988343;28;20089;-57
2022/02/06 09:44:51;;;;;;;4.32;2.78;;;;;;;5.56;100.00;96341.19;4988474;28;20086;-56
2022/02/06 09:47:23;;;;;;;3.08;2.70;;;;;;;5.60;100.00;96336.56;4990176;28;20167;-52
2022/02/06 09:49:51;;;;;;;3.55;2.80;;;;;;;5.56;100.00;96341.19;4987143;28;20085;-58
2022/02/06 09:52:25;;;;;;;2.95;2.55;;;;;;;5.74;100.00;96328.47;4987566;28;20073;-49
2022/02/06 09:54:54;;;;;;;3.88;2.67;;;;;;;5.75;100.00;96319.69;4987050;28;20062;-51
2022/02/06 09:57:27;;;;;;;2.67;2.47;;;;;;;6.00;100.00;96339.59;4990828;28;20066;-51
2022/02/06 09:59:58;;;;;;;2.78;2.50;;;;;;;5.95;100.00;96336.47;4987292;28;20089;-56
2022/02/06 10:02:29;;;;;;;4.18;2.60;;;;;;;6.16;100.00;96340.06;4988798;28;20078;-57
2022/02/06 10:04:58;;;;;;;6.03;2.58;;;;;;;6.04;100.00;96306.97;4987173;28;20081;-50
2022/02/06 10:07:29;;;;;;;4.57;2.80;;;;;;;6.14;100.00;96331.50;4987806;28;20077;-56
2022/02/06 10:10:02;;;;;;;3.10;2.58;;;;;;;6.31;100.00;96318.84;4987397;28;20077;-59
2022/02/06 10:12:34;;;;;;;5.38;2.60;;;;;;;6.22;100.00;96317.78;4986712;28;20077;-53
2022/02/06 10:15:04;;;;;;;3.53;3.08;;;;;;;6.12;100.00;96322.91;4985926;28;20517;-58
2022/02/06 10:17:34;;;;;;;4.25;2.70;;;;;;;6.20;100.00;96290.91;4989960;28;20074;-59
2022/02/06 10:20:12;;;;;;;4.57;2.65;;;;;;;6.17;100.00;96299.84;4967124;28;20035;-51
2022/02/06 10:22:48;;;;;;;4.57;2.60;;;;;;;6.27;100.00;96304.34;4963809;28;20067;-58
2022/02/06 10:25:17;;;;;;;2.95;2.70;;;;;;;6.66;100.00;96305.53;4966962;28;20078;-56
2022/02/06 10:27:58;;;;;;;4.30;2.50;;;;;;;6.74;100.00;96295.25;4967374;28;20066;-52
2022/02/06 10:30:40;;;;;;;2.90;2.60;;;;;;;6.97;100.00;96290.78;4967760;28;20093;-56
2022/02/06 10:33:10;;;;;;;3.78;2.45;;;;;;;7.01;100.00;96292.16;4962951;28;20081;-53
2022/02/06 10:35:41;;;;;;;3.60;2.33;;;;;;;6.76;100.00;96269.78;4967318;28;20082;-52
2022/02/06 10:38:17;;;;;;;3.03;2.35;;;;;;;6.56;100.00;96247.81;4968796;28;20510;-54
2022/02/06 10:40:46;;;;;;;2.53;2.33;;;;;;;6.65;100.00;96248.88;4962363;28;20073;-62
2022/02/06 10:43:16;;;;;;;2.67;2.40;;;;;;;6.85;100.00;96249.84;4965297;28;20122;-54
2022/02/06 10:45:45;;;;;;;3.22;2.67;;;;;;;6.80;100.00;96233.66;4957944;28;20078;-60
2022/02/06 10:48:23;;;;;;;2.60;2.40;;;;;;;6.70;100.00;96235.38;4950165;28;20078;-57
2022/02/06 10:50:51;;;;;;;2.60;2.40;;;;;;;6.89;100.00;96231.13;4963729;28;20525;-46
2022/02/06 10:53:20;;;;;;;3.28;2.75;;;;;;;6.97;100.00;96219.16;4967845;28;20090;-49
2022/02/06 10:55:58;;;;;;;3.70;2.53;;;;;;;6.96;100.00;96212.25;4966486;28;20093;-52
2022/02/06 10:58:28;;;;;;;3.92;2.28;;;;;;;7.35;100.00;96197.56;4964937;28;20555;-55
2022/02/06 11:00:58;;;;;;;3.05;2.30;;;;;;;7.40;100.00;96186.66;4963218;28;20074;-49
2022/02/06 11:03:30;;;;;;;;;;;;;;;7.13;100.00;96172.34;4966435;28;20490;-51
2022/02/06 11:06:07;;;;;;;3.00;2.50;;;;;;;7.36;100.00;96129.25;4966955;28;19988;-46
2022/02/06 11:08:37;;;;;;;3.03;2.30;;;;;;;7.25;100.00;96137.19;4966689;28;20097;-55
2022/02/06 11:11:08;;;;;;;2.13;2.03;;;;;;;7.55;100.00;96143.38;4967137;28;21248;-57
2022/02/06 11:13:37;;;;;;;4.45;2.35;;;;;;;7.22;100.00;96126.13;4967344;28;20066;-50
2022/02/06 11:16:18;;;;;;;2.30;2.10;;;;;;;7.52;100.00;96099.03;4967702;28;20490;-53
2022/02/06 11:18:50;;;;;;;5.07;2.70;;;;;;;7.63;100.00;96092.84;4968420;28;20182;-50
2022/02/06 11:21:19;;;;;;;2.47;2.10;;;;;;;7.35;100.00;96093.47;4961135;28;20078;-49
2022/02/06 11:23:50;;;;;;;2.63;2.30;;;;;;;7.61;100.00;96096.44;4965718;28;20085;-52
2022/02/06 11:26:22;;;;;;;3.42;2.30;;;;;;;7.86;100.00;96091.63;4963347;28;20480;-50
2022/02/06 11:28:51;;;;;;;;;;;;;;;7.51;100.00;96092.16;4966520;28;20150;-54
2022/02/06 11:31:22;;;;;;;2.63;2.00;;;;;;;7.37;100.00;96081.06;4964157;28;19961;-51
2022/02/06 11:33:51;;;;;;;2.30;2.10;;;;;;;7.50;100.00;96082.59;4964243;28;20517;-49
2022/02/06 11:43:42;;;;;;;2.50;2.30;;;;;;;7.56;100.00;96066.31;4965059;28;20897;-50
2022/02/06 11:45:09;;;;;;;2.42;2.17;;;;;;;7.41;100.00;96062.44;4966716;28;20094;-50
2022/02/06 11:47:43;;;;;;;3.67;2.20;;;;;;;7.54;100.00;96042.84;4963645;28;20597;-54
2022/02/06 11:50:12;;;;;;;2.38;2.10;;;;;;;7.50;100.00;96038.84;4964792;28;21565;-53
2022/02/06 11:52:51;;;;;;;2.45;2.25;;;;;;;7.44;100.00;96018.41;4967381;28;20063;-52
2022/02/06 11:55:35;;;;;;;4.60;2.20;;;;;;;7.60;100.00;96026.56;4966735;28;20070;-51
2022/02/06 11:58:26;;;;;;;2.42;2.20;;;;;;;7.59;100.00;96010.94;4965208;28;20078;-52
2022/02/06 12:01:13;;;;;;;;;;;;;;;7.79;99.05;96025.72;4964786;28;20498;-51
2022/02/06 12:03:54;;;;;;;3.33;2.25;;;;;;;7.75;98.79;96015.66;4962935;28;20392;-53
2022/02/06 12:06:25;;;;;;;3.13;2.30;;;;;;;7.75;100.00;96000.75;4969597;28;20085;-49
2022/02/06 12:09:29;;;;;;;2.67;2.30;;;;;;;8.15;100.00;95997.09;4966587;28;20152;-58
2022/02/06 12:12:10;;;;;;;2.00;1.90;;;;;;;7.90;95.49;95989.81;4904662;29;20110;-45
2022/02/06 12:14:43;;;;;;;2.50;2.13;;;;;;;8.11;99.07;95982.59;4903775;29;20106;-52
2022/02/06 12:17:19;;;;;;;3.10;2.30;;;;;;;8.07;100.00;95989.09;4943191;28;20372;-51
2022/02/06 12:20:09;;;;;;;2.90;2.20;;;;;;;7.99;98.15;95991.59;4965575;28;20073;-51
2022/02/06 12:22:43;;;;;;;4.55;2.10;;;;;;;7.94;97.09;95971.00;4960117;28;20189;-54
2022/02/06 12:25:20;;;;;;;3.00;2.33;;;;;;;7.87;100.00;95971.72;4966785;28;20458;-51
2022/02/06 12:27:50;;;;;;;2.40;2.20;;;;;;;7.95;100.00;95977.06;4965706;28;20070;-53
2022/02/06 12:30:21;;;;;;;2.30;2.20;;;;;;;7.78;100.00;95974.22;4965512;28;20070;-50
2022/02/06 12:32:50;;;;;;;2.30;2.10;;;;;;;7.68;100.00;95968.16;4965781;28;20082;-54
2022/02/06 12:38:09;;;;;;;2.42;2.22;;;;;;;8.33;100.00;95948.13;4965391;28;20747;-49
2022/02/06 12:40:37;;;;;;;2.40;2.20;;;;;;;8.32;99.47;95956.97;4965065;28;20480;-56
2022/02/06 12:43:06;;;;;;;2.70;2.28;;;;;;;7.87;100.00;95945.47;4965045;28;20540;-55
2022/02/06 12:45:34;;;;;;;3.63;2.10;;;;;;;8.08;100.00;95948.72;4966290;28;20078;-58
2022/02/06 12:48:06;;;;;;;2.75;2.20;;;;;;;7.92;100.00;95954.59;4965970;28;20070;-53
2022/02/06 12:50:39;;;;;;;2.50;2.30;;;;;;;7.97;100.00;95947.09;4965642;28;20086;-55
2022/02/06 12:53:16;;;;;;;3.05;2.53;;;;;;;8.33;100.00;95942.06;4964049;28;21956;-49
2022/02/06 12:55:46;;;;;;;3.38;2.30;;;;;;;7.97;100.00;95933.16;4966159;28;20066;-54
2022/02/06 12:58:17;;;;;;;3.03;2.55;;;;;;;7.78;100.00;95931.41;4963588;28;20081;-57
2022/02/06 13:00:48;;;;;;;12.00;6.68;;;;;;;8.04;100.00;95900.09;4964726;28;20067;-55
2022/02/06 13:03:21;;;;;;;3.90;2.75;;;;;;;7.77;100.00;95877.22;4965928;28;20071;-54
2022/02/06 13:05:52;;;;;;;2.60;2.38;;;;;;;7.80;100.00;95908.44;4967585;28;20082;-57
2022/02/06 13:08:21;;;;;;;3.05;2.42;;;;;;;7.75;100.00;95898.38;4974268;28;20086;-53
2022/02/06 13:10:51;;;;;;;2.50;2.22;;;;;;;7.88;100.00;95898.09;4967146;28;20117;-53
2022/02/06 13:13:24;;;;;;;3.05;2.30;;;;;;;7.80;100.00;95890.91;4968771;28;20705;-56
2022/02/06 13:16:23;;;;;;;2.50;2.30;;;;;;;7.61;100.00;95888.31;4967234;28;20075;-52
2022/02/06 13:19:08;;;;;;;2.50;2.30;;;;;;;7.48;100.00;95890.41;4968046;28;20062;-51
2022/02/06 13:21:49;;;;;;;4.63;2.15;;;;;;;7.76;100.00;95871.16;4968067;28;20070;-51
2022/02/06 13:24:37;;;;;;;2.33;2.13;;;;;;;7.61;100.00;95869.97;4967447;28;20449;-56
2022/02/06 13:27:22;;;;;;;2.30;2.10;;;;;;;7.57;100.00;95858.91;4967336;28;20067;-52
2022/02/06 13:29:59;;;;;;;2.40;2.30;;;;;;;7.55;100.00;95842.47;4967405;28;20082;-52